createdAt,value
2023-02-01T00:01:10.023Z,4.11
2023-02-01T00:03:38.009Z,4.08
2023-02-01T00:06:05.699Z,4.15
2023-02-01T00:08:33.685Z,4.13
2023-02-01T00:11:05.215Z,4.03
2023-02-01T00:13:35.062Z,3.97
2023-02-01T00:16:08.782Z,4.04
2023-02-01T00:18:37.116Z,4.06
2023-02-01T00:21:05.698Z,3.98
2023-02-01T00:23:35.318Z,3.95
2023-02-01T00:26:04.913Z,3.85
2023-02-01T00:28:33.672Z,3.97
2023-02-01T00:31:02.670Z,3.97
2023-02-01T00:33:33.179Z,3.88
2023-02-01T00:36:07.415Z,3.86
2023-02-01T00:38:37.529Z,3.89
2023-02-01T00:41:08.219Z,3.74
2023-02-01T00:43:36.548Z,3.71
2023-02-01T00:46:05.502Z,3.81
2023-02-01T00:48:33.434Z,3.81
2023-02-01T00:51:02.265Z,3.79
2023-02-01T00:53:30.470Z,3.82
2023-02-01T00:55:58.463Z,3.82
2023-02-01T00:58:26.814Z,3.70
2023-02-01T01:01:13.765Z,3.74
2023-02-01T01:03:44.205Z,3.85
2023-02-01T01:06:24.088Z,3.72
2023-02-01T01:08:56.576Z,3.59
2023-02-01T01:11:26.956Z,3.64
2023-02-01T01:13:56.997Z,3.72
2023-02-01T01:16:27.438Z,3.79
2023-02-01T01:18:57.084Z,3.78
2023-02-01T01:21:25.309Z,3.62
2023-02-01T01:23:52.988Z,3.55
2023-02-01T01:26:23.825Z,3.57
2023-02-01T01:28:52.791Z,3.55
2023-02-01T01:31:21.944Z,3.54
2023-02-01T01:33:53.000Z,3.37
2023-02-01T01:36:21.734Z,3.16
2023-02-01T01:38:50.309Z,3.03
2023-02-01T01:41:22.185Z,3.00
2023-02-01T01:43:50.121Z,3.05
2023-02-01T01:46:21.717Z,3.09
2023-02-01T01:48:54.633Z,3.28
2023-02-01T01:51:26.076Z,3.09
2023-02-01T01:54:06.146Z,3.12
2023-02-01T01:56:36.060Z,3.05
2023-02-01T01:59:06.534Z,2.96
2023-02-01T02:01:34.353Z,2.85
2023-02-01T02:04:02.979Z,2.84
2023-02-01T02:06:30.832Z,2.75
2023-02-01T02:08:58.805Z,2.83
2023-02-01T02:11:26.739Z,2.85
2023-02-01T02:13:58.351Z,3.00
2023-02-01T02:16:54.187Z,3.04
2023-02-01T02:19:22.184Z,3.18
2023-02-01T02:22:27.846Z,3.06
2023-02-01T02:25:14.062Z,2.89
2023-02-01T02:28:08.247Z,2.80
2023-02-01T02:30:58.109Z,2.80
2023-02-01T02:33:52.051Z,2.79
2023-02-01T02:36:25.679Z,2.71
2023-02-01T02:39:24.136Z,2.63
2023-02-01T02:42:31.997Z,2.40
2023-02-01T02:45:27.425Z,2.36
2023-02-01T02:48:09.088Z,2.47
2023-02-01T02:51:10.236Z,2.37
2023-02-01T02:54:25.483Z,2.38
2023-02-01T02:57:15.791Z,2.24
2023-02-01T03:00:05.563Z,2.29
2023-02-01T03:02:54.172Z,2.43
2023-02-01T03:05:22.056Z,2.49
2023-02-01T03:08:03.383Z,2.31
2023-02-01T03:10:48.836Z,2.34
2023-02-01T03:13:34.629Z,2.38
2023-02-01T03:16:28.621Z,2.39
2023-02-01T03:19:17.207Z,2.53
2023-02-01T03:21:57.923Z,2.44
2023-02-01T03:24:41.934Z,2.46
2023-02-01T03:27:15.826Z,2.45
2023-02-01T03:30:10.679Z,2.52
2023-02-01T03:33:01.617Z,2.48
2023-02-01T03:35:51.589Z,2.36
2023-02-01T03:38:51.755Z,2.12
2023-02-01T03:41:38.627Z,2.06
2023-02-01T03:44:16.193Z,2.14
2023-02-01T03:46:53.621Z,2.16
2023-02-01T03:49:30.732Z,2.20
2023-02-01T03:52:01.086Z,2.15
2023-02-01T03:54:29.642Z,2.22
2023-02-01T03:57:01.907Z,2.26
2023-02-01T03:59:29.450Z,2.42
2023-02-01T04:01:57.095Z,2.30
2023-02-01T04:04:24.713Z,2.17
2023-02-01T04:06:54.812Z,2.01
2023-02-01T04:09:22.997Z,2.23
2023-02-01T04:11:50.510Z,2.23
2023-02-01T04:14:18.136Z,2.32
2023-02-01T04:16:46.851Z,2.46
2023-02-01T04:19:14.518Z,2.43
2023-02-01T04:21:42.276Z,2.59
2023-02-01T04:24:10.501Z,2.56
2023-02-01T04:26:38.514Z,2.65
2023-02-01T04:29:06.164Z,2.64
2023-02-01T04:31:33.857Z,2.37
2023-02-01T04:34:02.284Z,2.37
2023-02-01T04:36:30.250Z,2.47
2023-02-01T04:38:58.259Z,2.44
2023-02-01T04:41:25.789Z,2.29
2023-02-01T04:43:53.677Z,2.31
2023-02-01T04:46:21.288Z,2.29
2023-02-01T04:48:49.256Z,2.25
2023-02-01T04:51:16.863Z,2.19
2023-02-01T04:53:45.673Z,2.24
2023-02-01T04:56:13.680Z,2.10
2023-02-01T04:58:41.185Z,2.23
2023-02-01T05:01:09.660Z,2.24
2023-02-01T05:03:37.286Z,2.28
2023-02-01T05:06:05.876Z,2.30
2023-02-01T05:08:36.691Z,2.44
2023-02-01T05:11:06.472Z,2.46
2023-02-01T05:13:49.311Z,2.36
2023-02-01T05:16:17.319Z,2.18
2023-02-01T05:18:45.764Z,2.01
2023-02-01T05:21:13.644Z,2.06
2023-02-01T05:23:59.592Z,2.19
2023-02-01T05:26:27.648Z,2.15
2023-02-01T05:28:55.761Z,2.27
2023-02-01T05:31:24.264Z,2.17
2023-02-01T05:33:51.980Z,2.09
2023-02-01T05:36:20.064Z,1.95
2023-02-01T05:38:47.866Z,2.06
2023-02-01T05:41:15.817Z,2.12
2023-02-01T05:43:43.810Z,2.04
2023-02-01T05:46:13.725Z,2.07
2023-02-01T05:48:42.676Z,2.08
2023-02-01T05:51:12.072Z,2.17
2023-02-01T05:53:39.799Z,2.13
2023-02-01T05:56:07.972Z,2.19
2023-02-01T05:58:35.587Z,2.09
2023-02-01T06:01:04.723Z,1.93
2023-02-01T06:03:32.427Z,1.85
2023-02-01T06:06:02.041Z,1.72
2023-02-01T06:08:29.801Z,1.70
2023-02-01T06:11:05.944Z,1.60
2023-02-01T06:13:34.880Z,1.74
2023-02-01T06:16:04.320Z,1.92
2023-02-01T06:18:32.595Z,1.91
2023-02-01T06:21:01.740Z,2.05
2023-02-01T06:23:31.645Z,2.00
2023-02-01T06:26:02.952Z,1.98
2023-02-01T06:28:31.726Z,1.94
2023-02-01T06:30:59.560Z,1.90
2023-02-01T06:33:27.804Z,1.89
2023-02-01T06:36:03.038Z,1.91
2023-02-01T06:38:31.921Z,2.02
2023-02-01T06:40:59.504Z,2.03
2023-02-01T06:43:28.515Z,2.11
2023-02-01T06:46:02.293Z,2.22
2023-02-01T06:48:30.192Z,2.24
2023-02-01T06:50:58.386Z,2.18
2023-02-01T06:53:26.627Z,2.25
2023-02-01T06:55:55.495Z,2.13
2023-02-01T06:58:24.381Z,2.24
2023-02-01T07:00:52.084Z,2.35
2023-02-01T07:03:19.639Z,2.34
2023-02-01T07:05:47.698Z,2.48
2023-02-01T07:08:15.998Z,2.46
2023-02-01T07:10:44.011Z,2.40
2023-02-01T07:13:11.528Z,2.68
2023-02-01T07:15:38.998Z,2.78
2023-02-01T07:18:06.580Z,2.89
2023-02-01T07:20:34.705Z,2.92
2023-02-01T07:23:02.266Z,3.02
2023-02-01T07:25:29.776Z,3.25
2023-02-01T07:27:58.657Z,3.27
2023-02-01T07:30:27.122Z,3.36
2023-02-01T07:32:54.740Z,3.37
2023-02-01T07:35:22.351Z,3.54
2023-02-01T07:37:50.033Z,3.53
2023-02-01T07:40:19.362Z,3.60
2023-02-01T07:42:49.920Z,3.68
2023-02-01T07:45:21.385Z,3.75
2023-02-01T07:47:50.560Z,3.95
2023-02-01T07:50:18.158Z,4.04
2023-02-01T07:52:45.636Z,4.09
2023-02-01T07:55:13.607Z,4.08
2023-02-01T07:57:41.120Z,4.32
2023-02-01T08:00:28.256Z,4.43
2023-02-01T08:02:58.383Z,4.46
2023-02-01T08:05:25.981Z,4.56
2023-02-01T08:07:53.515Z,4.70
2023-02-01T08:10:21.474Z,5.15
2023-02-01T08:12:49.974Z,5.67
2023-02-01T08:15:18.029Z,5.62
2023-02-01T08:17:50.049Z,5.59
2023-02-01T08:20:20.681Z,5.63
2023-02-01T08:22:49.471Z,6.09
2023-02-01T08:25:17.078Z,6.18
2023-02-01T08:27:45.224Z,6.26
2023-02-01T08:30:13.391Z,6.67
2023-02-01T08:32:41.423Z,6.58
2023-02-01T08:35:09.881Z,6.77
2023-02-01T08:37:37.786Z,6.76
2023-02-01T08:40:06.520Z,6.88
2023-02-01T08:42:53.171Z,6.90
2023-02-01T08:45:25.982Z,6.89
2023-02-01T08:47:54.610Z,6.90
2023-02-01T08:50:23.154Z,7.19
2023-02-01T08:52:51.057Z,7.41
2023-02-01T08:55:18.726Z,7.58
2023-02-01T08:57:47.256Z,7.68
2023-02-01T09:00:17.627Z,7.25
2023-02-01T09:02:46.840Z,7.59
2023-02-01T09:05:17.411Z,8.01
2023-02-01T09:07:44.947Z,8.18
2023-02-01T09:10:12.661Z,8.68
2023-02-01T09:12:40.291Z,9.40
2023-02-01T09:15:09.408Z,10.06
2023-02-01T09:17:37.599Z,10.43
2023-02-01T09:20:05.376Z,10.96
2023-02-01T09:22:32.929Z,11.29
2023-02-01T09:25:00.602Z,11.69
2023-02-01T09:27:28.266Z,11.60
2023-02-01T09:29:56.823Z,11.93
2023-02-01T09:32:25.189Z,12.66
2023-02-01T09:34:53.810Z,12.08
2023-02-01T09:37:21.902Z,13.60
2023-02-01T09:39:49.922Z,12.79
2023-02-01T09:42:26.190Z,11.45
2023-02-01T09:45:12.097Z,11.14
2023-02-01T09:47:50.519Z,12.34
2023-02-01T09:50:23.148Z,12.79
2023-02-01T09:53:03.102Z,10.21
2023-02-01T09:55:54.265Z,9.68
2023-02-01T09:58:56.792Z,10.64
2023-02-01T10:01:27.022Z,10.63
2023-02-01T10:04:04.666Z,10.51
2023-02-01T10:06:38.580Z,11.91
2023-02-01T10:09:18.639Z,12.58
2023-02-01T10:12:16.918Z,13.48
2023-02-01T10:14:50.541Z,14.00
2023-02-01T10:17:59.363Z,11.77
2023-02-01T10:20:28.117Z,10.30
2023-02-01T10:23:34.098Z,11.13
2023-02-01T10:26:19.791Z,10.40
2023-02-01T10:28:58.750Z,12.17
2023-02-01T10:31:29.474Z,12.08
2023-02-01T10:33:59.796Z,10.92
2023-02-01T10:36:34.077Z,11.45
2023-02-01T10:39:02.454Z,12.25
2023-02-01T10:41:38.557Z,12.30
2023-02-01T10:44:12.877Z,12.97
2023-02-01T10:46:40.888Z,13.30
2023-02-01T10:49:28.306Z,12.93
2023-02-01T10:52:03.333Z,12.52
2023-02-01T10:54:39.031Z,12.35
2023-02-01T10:57:11.876Z,12.91
2023-02-01T10:59:39.690Z,11.76
2023-02-01T11:02:31.242Z,12.73
2023-02-01T11:05:13.231Z,12.58
2023-02-01T11:07:49.877Z,12.27
2023-02-01T11:10:42.045Z,12.98
2023-02-01T11:13:17.665Z,12.47
2023-02-01T11:15:57.316Z,12.84
2023-02-01T11:18:36.306Z,13.62
2023-02-01T11:21:05.955Z,13.35
2023-02-01T11:23:34.862Z,12.62
2023-02-01T11:26:15.047Z,12.42
2023-02-01T11:28:53.456Z,13.48
2023-02-01T11:31:21.584Z,12.89
2023-02-01T11:34:14.806Z,12.97
2023-02-01T11:36:43.415Z,13.01
2023-02-01T11:39:13.921Z,14.19
2023-02-01T11:41:58.682Z,12.94
2023-02-01T11:44:33.960Z,12.76
2023-02-01T11:47:26.342Z,12.26
2023-02-01T11:50:02.505Z,12.50
2023-02-01T11:52:39.640Z,12.91
2023-02-01T11:55:41.318Z,13.31
2023-02-01T11:58:18.076Z,12.78
2023-02-01T12:00:59.264Z,12.67
2023-02-01T12:03:32.960Z,12.89
2023-02-01T12:06:06.013Z,12.13
2023-02-01T12:08:46.785Z,12.89
2023-02-01T12:11:45.282Z,13.57
2023-02-01T12:14:13.333Z,13.90
2023-02-01T12:17:13.607Z,13.25
2023-02-01T12:19:57.003Z,14.12
2023-02-01T12:22:33.347Z,14.17
2023-02-01T12:25:45.768Z,13.11
2023-02-01T12:28:36.266Z,13.75
2023-02-01T12:31:41.983Z,15.29
2023-02-01T12:34:20.627Z,14.26
2023-02-01T12:37:08.924Z,14.15
2023-02-01T12:39:45.477Z,14.20
2023-02-01T12:42:36.858Z,15.81
2023-02-01T12:45:13.982Z,14.78
2023-02-01T12:48:11.288Z,14.15
2023-02-01T12:50:50.205Z,15.32
2023-02-01T12:53:26.140Z,14.98
2023-02-01T12:55:56.716Z,15.51
2023-02-01T12:58:31.738Z,15.21
2023-02-01T13:01:12.916Z,14.82
2023-02-01T13:04:07.133Z,15.97
2023-02-01T13:06:45.516Z,16.64
2023-02-01T13:09:28.441Z,16.68
2023-02-01T13:12:02.064Z,17.15
2023-02-01T13:14:38.350Z,17.38
2023-02-01T13:17:13.765Z,16.85
2023-02-01T13:19:51.747Z,15.88
2023-02-01T13:22:28.227Z,15.97
2023-02-01T13:25:01.366Z,16.27
2023-02-01T13:27:31.907Z,17.35
2023-02-01T13:30:05.411Z,17.04
2023-02-01T13:32:54.880Z,17.62
2023-02-01T13:36:11.925Z,17.15
2023-02-01T13:39:01.023Z,17.02
2023-02-01T13:41:36.102Z,16.86
2023-02-01T13:44:14.460Z,17.19
2023-02-01T13:46:47.880Z,17.96
2023-02-01T13:49:32.724Z,18.48
2023-02-01T13:52:00.684Z,18.94
2023-02-01T13:54:39.503Z,18.79
2023-02-01T13:57:35.598Z,18.07
2023-02-01T14:00:10.782Z,17.54
2023-02-01T14:02:49.070Z,18.32
2023-02-01T14:05:23.085Z,17.81
2023-02-01T14:08:11.061Z,18.49
2023-02-01T14:10:59.781Z,20.42
2023-02-01T14:13:36.770Z,19.28
2023-02-01T14:16:04.956Z,20.02
2023-02-01T14:18:38.420Z,19.95
2023-02-01T14:21:33.368Z,21.19
2023-02-01T14:24:16.722Z,19.83
2023-02-01T14:26:50.556Z,20.00
2023-02-01T14:29:21.384Z,20.31
2023-02-01T14:32:19.468Z,21.43
2023-02-01T14:34:48.833Z,19.06
2023-02-01T14:37:21.853Z,19.70
2023-02-01T14:40:04.954Z,19.16
2023-02-01T14:42:47.913Z,19.54
2023-02-01T14:45:25.378Z,19.83
2023-02-01T14:48:08.264Z,19.09
2023-02-01T14:50:43.842Z,19.67
2023-02-01T14:53:20.128Z,20.29
2023-02-01T14:56:05.903Z,20.64
2023-02-01T14:58:52.346Z,20.17
2023-02-01T15:01:47.895Z,19.06
2023-02-01T15:04:22.999Z,17.48
2023-02-01T15:07:09.188Z,17.25
2023-02-01T15:09:45.719Z,16.90
2023-02-01T15:12:13.368Z,16.41
2023-02-01T15:14:46.437Z,14.74
2023-02-01T15:17:35.723Z,14.00
2023-02-01T15:20:23.279Z,13.07
2023-02-01T15:23:03.592Z,12.36
2023-02-01T15:25:39.924Z,12.11
2023-02-01T15:28:14.953Z,11.92
2023-02-01T15:30:58.080Z,11.67
2023-02-01T15:33:27.469Z,11.38
2023-02-01T15:36:19.066Z,11.28
2023-02-01T15:38:46.878Z,11.04
2023-02-01T15:41:19.912Z,11.02
2023-02-01T15:43:56.846Z,10.85
2023-02-01T15:46:33.335Z,10.97
2023-02-01T15:49:05.593Z,10.99
2023-02-01T15:51:33.834Z,10.94
2023-02-01T15:54:05.967Z,10.84
2023-02-01T15:56:44.978Z,10.89
2023-02-01T15:59:21.807Z,10.74
2023-02-01T16:01:50.061Z,10.88
2023-02-01T16:04:24.038Z,10.76
2023-02-01T16:06:55.187Z,10.73
2023-02-01T16:09:26.124Z,10.59
2023-02-01T16:12:01.463Z,10.48
2023-02-01T16:14:29.158Z,10.37
2023-02-01T16:16:59.593Z,10.27
2023-02-01T16:19:29.339Z,10.16
2023-02-01T16:21:57.442Z,10.22
2023-02-01T16:24:26.990Z,10.09
2023-02-01T16:26:54.861Z,9.93
2023-02-01T16:29:22.942Z,9.81
2023-02-01T16:31:51.435Z,9.59
2023-02-01T16:34:19.176Z,9.52
2023-02-01T16:36:57.230Z,9.34
2023-02-01T16:39:25.335Z,9.18
2023-02-01T16:41:53.800Z,9.15
2023-02-01T16:44:21.779Z,9.04
2023-02-01T16:46:49.730Z,9.03
2023-02-01T16:49:23.677Z,9.16
2023-02-01T16:51:53.934Z,8.90
2023-02-01T16:54:22.357Z,8.85
2023-02-01T16:56:50.412Z,8.92
2023-02-01T16:59:17.962Z,8.86
2023-02-01T17:01:45.881Z,8.75
2023-02-01T17:04:13.526Z,8.65
2023-02-01T17:06:42.681Z,8.64
2023-02-01T17:09:10.932Z,8.52
2023-02-01T17:11:39.888Z,8.71
2023-02-01T17:14:19.392Z,8.59
2023-02-01T17:16:49.541Z,8.53
2023-02-01T17:19:24.235Z,8.42
2023-02-01T17:21:56.662Z,8.43
2023-02-01T17:24:33.262Z,8.36
2023-02-01T17:27:06.848Z,8.31
2023-02-01T17:29:34.409Z,8.26
2023-02-01T17:32:05.609Z,8.18
2023-02-01T17:34:34.104Z,8.08
2023-02-01T17:37:02.075Z,8.06
2023-02-01T17:39:48.419Z,7.90
2023-02-01T17:42:16.812Z,7.78
2023-02-01T17:44:44.308Z,7.71
2023-02-01T17:47:12.281Z,7.68
2023-02-01T17:49:39.817Z,7.67
2023-02-01T17:52:09.224Z,7.65
2023-02-01T17:54:37.699Z,7.57
2023-02-01T17:57:12.793Z,7.60
2023-02-01T17:59:40.889Z,7.63
2023-02-01T18:02:20.525Z,7.80
2023-02-01T18:04:49.693Z,7.78
2023-02-01T18:07:17.914Z,7.65
2023-02-01T18:09:46.402Z,7.55
2023-02-01T18:12:22.450Z,7.62
2023-02-01T18:14:49.955Z,7.42
2023-02-01T18:17:17.883Z,7.40
2023-02-01T18:19:46.284Z,7.46
2023-02-01T18:22:22.362Z,7.38
2023-02-01T18:24:49.945Z,7.40
2023-02-01T18:27:17.532Z,7.33
2023-02-01T18:29:45.449Z,7.34
2023-02-01T18:32:13.542Z,7.37
2023-02-01T18:34:41.477Z,7.31
2023-02-01T18:37:09.840Z,7.27
2023-02-01T18:39:39.505Z,7.22
2023-02-01T18:42:11.164Z,7.15
2023-02-01T18:44:38.795Z,7.13
2023-02-01T18:47:06.742Z,7.20
2023-02-01T18:49:36.757Z,7.05
2023-02-01T18:52:06.625Z,6.89
2023-02-01T18:54:34.215Z,6.93
2023-02-01T18:57:01.868Z,6.96
2023-02-01T18:59:30.727Z,6.86
2023-02-01T19:01:58.237Z,6.89
2023-02-01T19:04:27.164Z,7.07
2023-02-01T19:06:55.144Z,7.22
2023-02-01T19:09:22.894Z,7.09
2023-02-01T19:11:50.410Z,7.06
2023-02-01T19:14:17.941Z,6.89
2023-02-01T19:16:46.469Z,6.91
2023-02-01T19:19:14.502Z,7.03
2023-02-01T19:21:42.596Z,6.89
2023-02-01T19:24:10.211Z,6.69
2023-02-01T19:26:40.474Z,6.55
2023-02-01T19:29:08.439Z,6.63
2023-02-01T19:31:36.085Z,6.55
2023-02-01T19:34:04.148Z,6.56
2023-02-01T19:36:31.760Z,6.51
2023-02-01T19:38:59.835Z,6.44
2023-02-01T19:41:27.345Z,6.38
2023-02-01T19:43:54.976Z,6.33
2023-02-01T19:46:23.570Z,6.40
2023-02-01T19:48:52.363Z,6.40
2023-02-01T19:51:20.389Z,6.25
2023-02-01T19:53:48.334Z,6.28
2023-02-01T19:56:16.176Z,6.33
2023-02-01T19:58:43.988Z,6.50
2023-02-01T20:01:11.637Z,6.38
2023-02-01T20:03:39.620Z,6.32
2023-02-01T20:06:07.648Z,6.27
2023-02-01T20:08:35.565Z,6.12
2023-02-01T20:11:06.767Z,6.09
2023-02-01T20:13:35.803Z,6.34
2023-02-01T20:16:04.071Z,6.36
2023-02-01T20:18:32.303Z,6.28
2023-02-01T20:21:00.015Z,6.30
2023-02-01T20:23:28.437Z,6.30
2023-02-01T20:26:02.917Z,6.21
2023-02-01T20:28:32.185Z,6.21
2023-02-01T20:31:01.344Z,6.16
2023-02-01T20:33:31.084Z,6.16
2023-02-01T20:35:58.900Z,6.06
2023-02-01T20:38:27.116Z,5.92
2023-02-01T20:41:03.143Z,5.83
2023-02-01T20:43:31.622Z,5.67
2023-02-01T20:46:00.526Z,5.78
2023-02-01T20:48:29.282Z,5.77
2023-02-01T20:50:57.887Z,5.56
2023-02-01T20:53:27.242Z,5.64
2023-02-01T20:55:57.758Z,5.59
2023-02-01T20:58:26.488Z,5.53
2023-02-01T21:00:54.570Z,5.49
2023-02-01T21:03:22.921Z,5.51
2023-02-01T21:05:54.355Z,5.55
2023-02-01T21:08:22.492Z,5.52
2023-02-01T21:11:12.850Z,5.38
2023-02-01T21:13:44.183Z,5.41
2023-02-01T21:16:13.614Z,5.33
2023-02-01T21:18:41.571Z,5.29
2023-02-01T21:21:13.430Z,5.17
2023-02-01T21:23:47.702Z,5.15
2023-02-01T21:26:18.601Z,5.08
2023-02-01T21:28:46.816Z,5.14
2023-02-01T21:31:17.397Z,5.08
2023-02-01T21:33:48.154Z,4.83
2023-02-01T21:36:19.506Z,4.93
2023-02-01T21:38:50.877Z,4.84
2023-02-01T21:41:39.615Z,4.91
2023-02-01T21:44:07.774Z,4.79
2023-02-01T21:46:35.350Z,4.80
2023-02-01T21:49:04.009Z,4.73
2023-02-01T21:51:38.628Z,4.74
2023-02-01T21:54:09.292Z,4.74
2023-02-01T21:56:38.395Z,4.40
2023-02-01T21:59:06.606Z,4.39
2023-02-01T22:01:34.608Z,4.31
2023-02-01T22:04:02.321Z,4.33
2023-02-01T22:06:32.902Z,4.45
2023-02-01T22:09:01.959Z,4.32
2023-02-01T22:11:29.877Z,4.47
2023-02-01T22:13:58.223Z,4.41
2023-02-01T22:16:25.902Z,4.56
2023-02-01T22:18:54.472Z,4.56
2023-02-01T22:21:24.070Z,4.63
2023-02-01T22:23:55.961Z,4.78
2023-02-01T22:26:24.787Z,4.63
2023-02-01T22:28:53.426Z,4.43
2023-02-01T22:31:21.963Z,4.43
2023-02-01T22:33:51.019Z,4.39
2023-02-01T22:36:19.442Z,4.49
2023-02-01T22:38:48.601Z,4.54
2023-02-01T22:41:17.858Z,4.43
2023-02-01T22:43:47.187Z,4.49
2023-02-01T22:46:21.650Z,4.36
2023-02-01T22:48:49.704Z,4.21
2023-02-01T22:51:25.498Z,4.19
2023-02-01T22:53:57.187Z,4.19
2023-02-01T22:56:31.437Z,4.18
2023-02-01T22:59:02.356Z,4.20
2023-02-01T23:01:30.266Z,4.26
2023-02-01T23:03:59.825Z,4.19
2023-02-01T23:06:28.668Z,4.13
2023-02-01T23:09:01.638Z,4.09
2023-02-01T23:11:29.542Z,4.12
2023-02-01T23:13:57.379Z,3.94
2023-02-01T23:16:24.946Z,3.89
2023-02-01T23:18:52.495Z,3.97
2023-02-01T23:21:22.151Z,3.96
2023-02-01T23:23:52.575Z,3.99
2023-02-01T23:26:22.592Z,3.97
2023-02-01T23:28:54.934Z,4.03
2023-02-01T23:31:26.193Z,3.96
2023-02-01T23:33:55.237Z,4.02
2023-02-01T23:36:25.200Z,4.14
2023-02-01T23:38:53.442Z,4.12
2023-02-01T23:41:23.171Z,4.11
2023-02-01T23:44:00.941Z,3.81
2023-02-01T23:46:32.927Z,3.56
2023-02-01T23:49:02.227Z,3.57
2023-02-01T23:51:30.329Z,3.54
2023-02-01T23:53:59.639Z,3.63
2023-02-01T23:56:31.356Z,3.81
2023-02-01T23:59:00.775Z,3.66
